Time;durP1;ratioP1;P1;durP2;ratioP2;P2;SDS_P1;SDS_P2;PMS_P1;PMS_P2;Temp;Humidity;BMP_temperature;BMP_pressure;BME280_temperature;BME280_humidity;BME280_pressure;Samples;Min_cycle;Max_cycle;Signal;HPM_P1;HPM_P2
2022/11/14 00:00:58;;;;;;;37.47;19.80;;;;;;;4.26;100.00;98120.06;5026636;28;20061;-58
2022/11/14 00:03:25;;;;;;;38.75;21.08;;;;;;;4.25;100.00;98123.91;5026198;28;20089;-57
2022/11/14 00:05:51;;;;;;;43.38;20.85;;;;;;;4.29;100.00;98116.72;5025185;28;20529;-57
2022/11/14 00:08:22;;;;;;;43.65;20.70;;;;;;;4.29;100.00;98111.22;5026076;28;20128;-59
2022/11/14 00:10:50;;;;;;;36.95;18.08;;;;;;;4.18;100.00;98120.78;5026479;28;20058;-66
2022/11/14 00:13:18;;;;;;;39.17;18.60;;;;;;;3.97;100.00;98111.28;5026323;28;20053;-57
2022/11/14 00:15:53;;;;;;;39.03;17.77;;;;;;;3.98;100.00;98129.34;5026472;28;20050;-57
2022/11/14 00:18:20;;;;;;;35.80;16.52;;;;;;;4.01;100.00;98114.25;5026530;28;20049;-58
2022/11/14 00:20:51;;;;;;;42.55;18.33;;;;;;;4.03;100.00;98101.84;5041344;28;20091;-66
2022/11/14 00:23:19;;;;;;;38.95;18.75;;;;;;;3.97;100.00;98105.81;5025870;28;20060;-57
2022/11/14 00:25:46;;;;;;;45.47;19.85;;;;;;;3.62;100.00;98059.84;5025871;28;20401;-66
2022/11/14 00:28:13;;;;;;;42.90;18.85;;;;;;;3.94;100.00;98111.88;5024328;28;20093;-59
2022/11/14 00:30:40;;;;;;;45.28;18.60;;;;;;;3.64;100.00;98101.47;5025905;28;20053;-57
2022/11/14 00:33:06;;;;;;;38.22;19.10;;;;;;;3.48;100.00;98102.81;5026185;28;20128;-58
2022/11/14 00:35:33;;;;;;;40.47;17.83;;;;;;;3.57;100.00;98106.53;5026116;28;20061;-66
2022/11/14 00:37:59;;;;;;;36.53;17.63;;;;;;;3.58;100.00;98097.19;5023942;28;20092;-58
2022/11/14 00:40:26;;;;;;;35.72;16.63;;;;;;;3.48;100.00;98097.34;5025140;28;20062;-56
2022/11/14 00:42:53;;;;;;;38.47;17.33;;;;;;;3.51;100.00;98085.78;5025970;28;20132;-65
2022/11/14 00:45:20;;;;;;;48.08;18.55;;;;;;;3.52;100.00;98084.69;5025536;28;20561;-57
2022/11/14 00:47:46;;;;;;;42.85;17.90;;;;;;;3.59;100.00;98098.00;5025571;28;20084;-66
2022/11/14 00:50:15;;;;;;;48.15;19.05;;;;;;;3.63;100.00;98085.31;5025634;28;20587;-57
2022/11/14 00:52:41;;;;;;;39.28;16.67;;;;;;;3.68;100.00;98088.81;5026160;28;20132;-65
2022/11/14 00:55:08;;;;;;;36.25;17.70;;;;;;;3.71;100.00;98082.72;5025441;28;20280;-57
2022/11/14 00:57:34;;;;;;;43.58;18.88;;;;;;;3.50;100.00;98029.41;5026050;28;20080;-66
2022/11/14 01:00:02;;;;;;;49.30;20.73;;;;;;;3.32;100.00;97991.91;5017746;28;20053;-58
2022/11/14 01:02:29;;;;;;;47.53;20.50;;;;;;;3.95;100.00;98075.13;5004798;28;20124;-66
2022/11/14 01:04:55;;;;;;;48.05;20.55;;;;;;;4.02;100.00;98070.06;5025301;28;20144;-57
2022/11/14 01:07:22;;;;;;;44.17;19.58;;;;;;;1.79;100.00;97681.47;5025424;28;20536;-59
2022/11/14 01:09:48;;;;;;;41.75;17.55;;;;;;;4.11;100.00;98046.31;5025193;28;20696;-65
2022/11/14 01:12:15;;;;;;;37.45;17.40;;;;;;;3.89;100.00;98010.56;5025456;28;20093;-65
2022/11/14 01:14:42;;;;;;;39.80;16.98;;;;;;;4.09;100.00;98069.69;5025070;28;20095;-57
2022/11/14 01:17:08;;;;;;;32.85;15.38;;;;;;;3.94;100.00;98062.56;5025381;28;20111;-57
2022/11/14 01:19:35;;;;;;;82.25;30.92;;;;;;;3.69;100.00;98021.94;5025034;28;20111;-65
2022/11/14 01:22:01;;;;;;;41.78;19.65;;;;;;;3.54;100.00;98003.00;5025081;28;20128;-57
2022/11/14 01:24:32;;;;;;;36.90;17.10;;;;;;;3.83;100.00;98061.13;5024791;28;20049;-57
2022/11/14 01:26:59;;;;;;;43.40;19.52;;;;;;;3.32;100.00;98000.13;5023212;28;20049;-57
2022/11/14 01:29:26;;;;;;;53.95;23.55;;;;;;;3.84;100.00;98057.25;5025022;28;20162;-56
2022/11/14 01:31:52;;;;;;;40.85;18.73;;;;;;;3.95;100.00;98058.69;5025022;28;20096;-57
2022/11/14 01:34:19;;;;;;;29.77;16.27;;;;;;;3.19;100.00;97968.06;5025063;28;20160;-66
2022/11/14 01:36:46;;;;;;;37.42;15.05;;;;;;;3.02;100.00;98061.66;5023532;28;20057;-65
2022/11/14 01:39:12;;;;;;;41.90;16.30;;;;;;;1.37;100.00;97960.78;5024881;28;20725;-66
2022/11/14 01:41:39;;;;;;;37.08;15.30;;;;;;;1.58;100.00;98026.09;5023357;28;20512;-57
2022/11/14 01:44:12;;;;;;;30.13;14.52;;;;;;;2.17;100.00;98067.47;5023866;28;20088;-65
2022/11/14 01:46:40;;;;;;;;;;;;;;;2.24;100.00;98071.50;5025135;28;20127;-65
2022/11/14 01:49:19;;;;;;;31.02;13.20;;;;;;;2.25;100.00;98083.25;5024914;28;19960;-66
2022/11/14 01:51:53;;;;;;;32.63;15.13;;;;;;;1.96;100.00;98000.53;5029075;28;20152;-65
2022/11/14 01:54:28;;;;;;;29.63;13.95;;;;;;;1.96;100.00;97989.59;5028625;28;20057;-60
2022/11/14 01:56:58;;;;;;;30.48;14.30;;;;;;;2.37;100.00;98064.53;5028634;28;20515;-60
2022/11/14 01:59:31;;;;;;;32.35;14.73;;;;;;;2.19;100.00;98018.81;5029496;28;20118;-65
2022/11/14 02:02:02;;;;;;;32.20;14.27;;;;;;;2.40;100.00;98048.31;5028939;28;20088;-65
2022/11/14 02:04:34;;;;;;;35.70;14.98;;;;;;;1.97;100.00;98011.19;5027558;28;20053;-64
2022/11/14 02:07:03;;;;;;;33.80;15.88;;;;;;;2.36;100.00;98058.22;5028683;28;20088;-57
2022/11/14 02:09:35;;;;;;;30.95;15.48;;;;;;;2.49;100.00;98075.84;5028838;28;20103;-65
2022/11/14 02:12:06;;;;;;;32.05;15.52;;;;;;;2.55;100.00;98056.34;5027275;28;20144;-58
2022/11/14 02:14:35;;;;;;;30.42;14.45;;;;;;;2.50;100.00;98055.56;5028749;28;20136;-59
2022/11/14 02:17:02;;;;;;;30.42;14.48;;;;;;;2.50;100.00;98050.09;5028395;28;20152;-65
2022/11/14 02:19:56;;;;;;;35.80;15.98;;;;;;;2.47;100.00;98053.44;5028294;28;20056;-64
2022/11/14 02:22:30;;;;;;;36.47;16.35;;;;;;;2.61;100.00;98059.81;5028719;28;20060;-57
2022/11/14 02:24:56;;;;;;;36.80;16.30;;;;;;;2.51;100.00;98032.63;5028314;28;20144;-57
2022/11/14 02:27:23;;;;;;;39.80;17.80;;;;;;;2.67;100.00;98053.19;5028511;28;20806;-57
2022/11/14 02:29:50;;;;;;;34.30;17.20;;;;;;;2.81;100.00;98045.84;5028503;28;20141;-65
2022/11/14 02:32:16;;;;;;;35.92;16.73;;;;;;;2.86;100.00;98052.06;5028096;28;20103;-65
2022/11/14 02:34:43;;;;;;;35.72;15.90;;;;;;;2.77;100.00;98036.59;5026950;28;20140;-57
2022/11/14 02:37:10;;;;;;;33.50;16.55;;;;;;;2.78;100.00;98027.31;5026419;28;20053;-59
2022/11/14 02:39:37;;;;;;;35.22;16.38;;;;;;;2.97;100.00;98044.53;5028283;28;20053;-57
2022/11/14 02:42:04;;;;;;;39.38;16.35;;;;;;;2.72;100.00;98007.41;5026266;28;20504;-65
2022/11/14 02:44:31;;;;;;;38.70;16.33;;;;;;;2.93;100.00;98035.28;5028017;28;20575;-64
2022/11/14 02:46:57;;;;;;;35.30;16.75;;;;;;;2.77;100.00;98031.94;5027717;28;20088;-65
2022/11/14 02:49:24;;;;;;;40.40;18.48;;;;;;;2.68;100.00;98027.44;5027848;28;20111;-58
2022/11/14 02:51:50;;;;;;;47.35;18.98;;;;;;;2.72;100.00;98047.63;5027934;28;20119;-65
2022/11/14 02:54:17;;;;;;;59.63;22.70;;;;;;;2.50;100.00;98009.91;5027713;28;20140;-65
2022/11/14 02:56:43;;;;;;;54.25;22.50;;;;;;;2.54;100.00;98042.97;5027867;28;20045;-59
2022/11/14 02:59:10;;;;;;;52.70;20.45;;;;;;;1.87;100.00;97944.91;5027986;28;20076;-65
2022/11/14 03:01:37;;;;;;;44.35;17.38;;;;;;;2.58;100.00;98046.72;5026887;28;20095;-57
2022/11/14 03:04:04;;;;;;;41.75;16.17;;;;;;;2.68;100.00;98038.38;5027873;28;20084;-65
2022/11/14 03:06:30;;;;;;;38.53;17.00;;;;;;;2.56;100.00;98043.50;5026400;28;20075;-57
2022/11/14 03:08:57;;;;;;;37.50;15.63;;;;;;;2.18;100.00;97996.13;5027701;28;20107;-65
2022/11/14 03:11:23;;;;;;;34.55;15.88;;;;;;;1.94;100.00;97945.38;5025989;28;20061;-58
2022/11/14 03:13:50;;;;;;;38.72;16.38;;;;;;;2.00;100.00;98048.00;5027442;28;20567;-56
2022/11/14 03:16:16;;;;;;;38.42;16.95;;;;;;;0.72;100.00;97942.31;5027542;28;20160;-65
2022/11/14 03:18:43;;;;;;;60.58;18.63;;;;;;;1.21;100.00;98034.91;5027230;28;20085;-57
2022/11/14 03:21:12;;;;;;;58.13;17.95;;;;;;;1.07;100.00;98023.84;5027325;28;20614;-66
2022/11/14 03:23:39;;;;;;;49.50;17.50;;;;;;;1.46;100.00;98046.41;5027432;28;20494;-56
2022/11/14 03:26:07;;;;;;;40.45;17.00;;;;;;;1.56;100.00;98043.56;5027290;28;20092;-66
2022/11/14 03:28:35;;;;;;;40.42;16.58;;;;;;;1.08;100.00;97953.72;5026624;28;20140;-66
2022/11/14 03:31:02;;;;;;;42.85;15.93;;;;;;;1.84;100.00;98049.28;5025756;28;20089;-58
2022/11/14 03:33:29;;;;;;;80.78;19.70;;;;;;;1.89;100.00;98052.78;5027251;28;20089;-63
2022/11/14 03:35:55;;;;;;;52.40;17.33;;;;;;;1.80;100.00;98054.53;5026540;28;20107;-57
2022/11/14 03:38:22;;;;;;;68.78;18.00;;;;;;;1.61;100.00;98050.09;5026672;28;20162;-65
2022/11/14 03:40:50;;;;;;;36.40;15.15;;;;;;;1.74;100.00;98054.88;5026887;28;20297;-65
2022/11/14 03:43:20;;;;;;;32.88;15.80;;;;;;;1.81;100.00;98066.25;5026904;28;20053;-64
2022/11/14 03:45:47;;;;;;;35.45;14.85;;;;;;;1.89;100.00;98068.34;5025541;28;20491;-56
2022/11/14 03:48:14;;;;;;;32.45;15.38;;;;;;;2.00;100.00;98042.53;5026423;28;20101;-58
2022/11/14 03:50:41;;;;;;;29.95;14.23;;;;;;;1.77;100.00;98048.81;5026386;28;20141;-65
2022/11/14 03:53:08;;;;;;;34.88;13.70;;;;;;;0.77;100.00;97990.53;5026456;28;20061;-65
2022/11/14 03:55:35;;;;;;;36.65;15.32;;;;;;;1.00;100.00;98050.63;5026501;28;20124;-65
2022/11/14 03:58:01;;;;;;;34.65;14.85;;;;;;;0.84;100.00;98049.09;5026479;28;20169;-57
2022/11/14 04:00:28;;;;;;;33.30;15.07;;;;;;;0.70;100.00;98045.38;5026496;28;20133;-64
2022/11/14 04:02:56;;;;;;;37.13;15.43;;;;;;;0.55;100.00;98004.59;5026387;28;20049;-63
2022/11/14 04:05:23;;;;;;;30.90;13.80;;;;;;;0.57;100.00;97963.44;5026481;28;20835;-65
2022/11/14 04:07:50;;;;;;;31.13;13.50;;;;;;;1.19;100.00;98043.38;5024790;28;20088;-66
2022/11/14 04:10:17;;;;;;;33.13;14.80;;;;;;;0.57;100.00;97926.06;5026298;28;20049;-65
2022/11/14 04:12:51;;;;;;;31.00;13.38;;;;;;;1.39;100.00;98043.19;5024741;28;20050;-64
2022/11/14 04:15:19;;;;;;;45.30;17.55;;;;;;;1.58;100.00;98035.91;5026257;28;20521;-57
2022/11/14 04:17:46;;;;;;;48.42;18.70;;;;;;;1.73;100.00;98039.56;5026611;28;20175;-57
2022/11/14 04:20:14;;;;;;;49.13;18.10;;;;;;;1.80;100.00;98037.31;5026199;28;20081;-66
2022/11/14 04:22:40;;;;;;;35.35;15.52;;;;;;;1.93;100.00;98042.91;5026306;28;20528;-66
2022/11/14 04:25:08;;;;;;;36.55;16.00;;;;;;;1.83;100.00;98021.19;5026253;28;20128;-64
2022/11/14 04:27:34;;;;;;;35.70;15.57;;;;;;;1.58;100.00;97980.50;5023940;28;20136;-57
2022/11/14 04:30:02;;;;;;;37.90;15.88;;;;;;;2.03;100.00;98031.03;5025831;28;20543;-59
2022/11/14 04:32:29;;;;;;;35.38;16.35;;;;;;;2.16;100.00;98030.34;5026208;28;20108;-59
2022/11/14 04:34:55;;;;;;;36.00;16.33;;;;;;;1.97;100.00;97993.97;5025636;28;20084;-65
2022/11/14 04:37:22;;;;;;;41.03;16.55;;;;;;;1.84;100.00;98011.03;5024606;28;20128;-65
2022/11/14 04:39:49;;;;;;;44.08;17.15;;;;;;;1.35;100.00;97964.91;5025943;28;20049;-56
2022/11/14 04:42:15;;;;;;;73.45;25.73;;;;;;;1.88;100.00;98044.88;5025849;28;20080;-57
2022/11/14 04:44:42;;;;;;;66.47;23.58;;;;;;;1.92;100.00;98035.00;5024453;28;20574;-65
2022/11/14 04:47:09;;;;;;;67.25;22.75;;;;;;;1.90;100.00;98042.69;5025834;28;20599;-57
2022/11/14 04:49:35;;;;;;;68.88;24.25;;;;;;;1.90;100.00;98048.16;5025667;28;20140;-58
2022/11/14 04:52:02;;;;;;;50.75;22.10;;;;;;;1.92;100.00;98074.06;5024246;28;20050;-64
2022/11/14 04:54:28;;;;;;;41.58;19.70;;;;;;;1.94;100.00;98060.09;5025541;28;20085;-64
2022/11/14 04:56:55;;;;;;;35.55;15.68;;;;;;;1.52;100.00;97998.84;5025746;28;20139;-57
2022/11/14 04:59:21;;;;;;;34.00;15.00;;;;;;;1.87;100.00;98071.38;5025971;28;20053;-64
2022/11/14 05:01:48;;;;;;;25.38;12.07;;;;;;;1.87;100.00;98059.63;5025687;28;21505;-63
2022/11/14 05:04:15;;;;;;;31.20;13.23;;;;;;;1.77;100.00;98033.22;5025265;28;20053;-63
2022/11/14 05:06:42;;;;;;;26.60;12.88;;;;;;;1.87;100.00;98060.44;5023845;28;20096;-57
2022/11/14 05:09:08;;;;;;;43.67;17.05;;;;;;;1.86;100.00;98069.75;5025092;28;20144;-58
2022/11/14 05:11:35;;;;;;;54.60;22.50;;;;;;;1.87;100.00;98054.16;5025374;28;20142;-65
2022/11/14 05:14:01;;;;;;;81.50;23.70;;;;;;;1.35;100.00;98009.38;5025097;28;20115;-63
2022/11/14 05:16:28;;;;;;;83.60;20.88;;;;;;;1.73;100.00;98069.63;5025665;28;20060;-57
2022/11/14 05:18:55;;;;;;;75.78;20.40;;;;;;;1.82;100.00;98073.38;5023505;28;20583;-63
2022/11/14 05:21:21;;;;;;;74.57;20.30;;;;;;;1.84;100.00;98065.66;5025125;28;20107;-63
2022/11/14 05:23:48;;;;;;;74.95;19.88;;;;;;;1.81;100.00;98074.44;5024791;28;20107;-63
2022/11/14 05:26:16;;;;;;;65.78;19.00;;;;;;;1.90;100.00;98070.00;5024244;28;20583;-57
2022/11/14 05:28:43;;;;;;;69.22;18.45;;;;;;;1.94;100.00;98066.41;5023332;28;20582;-64
2022/11/14 05:31:21;;;;;;;58.88;18.25;;;;;;;2.00;100.00;98070.69;5023695;28;20129;-63
2022/11/14 05:33:47;;;;;;;46.30;18.73;;;;;;;2.06;100.00;98071.44;5025058;28;20495;-63
2022/11/14 05:36:15;;;;;;;47.85;21.23;;;;;;;1.90;100.00;98037.22;5024840;28;20324;-57
2022/11/14 05:38:42;;;;;;;57.10;21.77;;;;;;;1.80;100.00;98004.53;5024510;28;20111;-65
2022/11/14 05:41:15;;;;;;;44.90;20.30;;;;;;;2.10;100.00;98083.44;5024594;28;20088;-60
2022/11/14 05:43:41;;;;;;;40.70;18.80;;;;;;;1.46;100.00;97993.72;5025282;28;20062;-57
2022/11/14 05:46:10;;;;;;;39.03;17.70;;;;;;;2.22;100.00;98083.81;5023699;28;20088;-65
2022/11/14 05:48:37;;;;;;;38.10;18.27;;;;;;;2.30;100.00;98080.44;5024701;28;20081;-57
2022/11/14 05:51:05;;;;;;;33.97;17.25;;;;;;;2.49;100.00;98084.03;5025187;28;20084;-57
2022/11/14 05:53:32;;;;;;;43.60;19.45;;;;;;;2.64;100.00;98086.59;5023139;28;20049;-63
2022/11/14 05:56:01;;;;;;;45.00;22.02;;;;;;;2.77;100.00;98085.84;5039722;28;20175;-57
2022/11/14 05:58:27;;;;;;;40.28;21.73;;;;;;;2.77;100.00;98081.19;5024643;28;20491;-59
2022/11/14 06:01:21;;;;;;;45.60;21.75;;;;;;;2.94;100.00;98080.69;5024550;28;20144;-63
2022/11/14 06:03:48;;;;;;;45.75;21.45;;;;;;;3.03;100.00;98084.38;5022690;28;20077;-63
2022/11/14 06:06:18;;;;;;;41.67;21.00;;;;;;;3.18;100.00;98084.13;5025048;28;20518;-63
2022/11/14 06:08:45;;;;;;;42.92;21.20;;;;;;;3.21;100.00;98089.00;5024164;28;20053;-56
2022/11/14 06:11:15;;;;;;;56.10;26.95;;;;;;;2.84;100.00;98015.16;5024467;28;20096;-63
2022/11/14 06:13:42;;;;;;;52.80;25.50;;;;;;;3.51;100.00;98072.09;5024760;28;20574;-57
2022/11/14 06:16:11;;;;;;;59.15;26.75;;;;;;;3.61;99.77;98080.16;5024459;28;20133;-63
2022/11/14 06:18:38;;;;;;;60.92;28.10;;;;;;;3.61;100.00;98052.75;5024171;28;20512;-57
2022/11/14 06:21:09;;;;;;;55.95;28.70;;;;;;;3.99;98.64;98073.44;5024459;28;20115;-59
2022/11/14 06:23:36;;;;;;;49.85;24.98;;;;;;;3.69;99.51;97993.72;5024413;28;20523;-59
2022/11/14 06:26:06;;;;;;;53.85;26.77;;;;;;;4.29;100.00;98083.81;5023108;28;20148;-64
2022/11/14 06:28:33;;;;;;;60.97;28.60;;;;;;;4.46;100.00;98067.53;5024156;28;20108;-59
2022/11/14 06:31:02;;;;;;;56.40;29.60;;;;;;;4.57;100.00;98059.91;5022978;28;20124;-63
2022/11/14 06:33:32;;;;;;;51.15;26.52;;;;;;;4.51;99.57;98059.22;5023927;28;20085;-57
2022/11/14 06:36:01;;;;;;;61.10;29.58;;;;;;;4.77;99.47;98069.63;5025434;28;20085;-58
2022/11/14 06:38:30;;;;;;;50.40;26.63;;;;;;;4.31;98.34;98067.88;5028129;28;20480;-57
2022/11/14 06:41:15;;;;;;;55.25;27.52;;;;;;;3.87;100.00;98064.88;5027927;28;20057;-58
2022/11/14 06:43:43;;;;;;;55.15;27.77;;;;;;;3.85;100.00;98069.84;5025653;28;20081;-62
2022/11/14 06:46:13;;;;;;;46.50;23.92;;;;;;;4.20;100.00;98060.97;5022943;28;20084;-55
2022/11/14 06:48:40;;;;;;;40.78;20.92;;;;;;;4.28;100.00;98035.53;5025172;28;20058;-63
2022/11/14 06:51:08;;;;;;;41.28;22.25;;;;;;;4.75;100.00;98060.91;5042199;28;20120;-55
2022/11/14 06:53:36;;;;;;;43.08;21.52;;;;;;;4.39;100.00;98017.75;5026819;28;20061;-60
2022/11/14 06:56:04;;;;;;;42.22;22.50;;;;;;;5.04;100.00;98055.84;5027238;28;20133;-56
2022/11/14 06:58:33;;;;;;;37.00;19.38;;;;;;;5.04;99.48;98047.63;5027256;28;20053;-58
2022/11/14 07:01:12;;;;;;;31.40;18.40;;;;;;;4.11;97.76;97911.97;5027128;28;20053;-61
2022/11/14 07:03:40;;;;;;;38.28;21.27;;;;;;;5.08;97.34;98000.00;5027524;28;20132;-65
2022/11/14 07:06:08;;;;;;;37.45;18.98;;;;;;;5.76;97.23;98049.09;5026302;28;20489;-58
2022/11/14 07:08:34;;;;;;;35.22;18.15;;;;;;;5.88;95.68;98030.91;5027186;28;20513;-66
2022/11/14 07:11:03;;;;;;;33.45;19.38;;;;;;;6.39;94.96;98051.50;5026442;28;20084;-65
2022/11/14 07:13:30;;;;;;;36.10;20.02;;;;;;;6.61;92.29;98043.97;5026325;28;20053;-56
2022/11/14 07:15:57;;;;;;;34.05;19.13;;;;;;;6.82;91.27;98039.50;5025015;28;20598;-64
2022/11/14 07:18:24;;;;;;;33.80;18.55;;;;;;;7.02;91.37;98049.88;5026325;28;20592;-63
2022/11/14 07:20:59;;;;;;;33.65;19.75;;;;;;;6.42;90.06;97897.59;5024757;28;20562;-70
2022/11/14 07:23:27;;;;;;;43.05;23.83;;;;;;;7.51;87.72;98052.16;5026270;28;20080;-58
2022/11/14 07:25:53;;;;;;;43.55;24.63;;;;;;;7.39;87.54;97994.13;5026401;28;20049;-58
2022/11/14 07:28:20;;;;;;;36.55;20.73;;;;;;;7.64;85.10;98031.88;5026244;28;20084;-71
2022/11/14 07:30:47;;;;;;;42.28;22.50;;;;;;;7.99;85.09;98031.78;5026914;28;20087;-57
2022/11/14 07:33:13;;;;;;;31.58;20.27;;;;;;;6.03;84.94;97677.72;5024453;28;20136;-64
2022/11/14 07:35:40;;;;;;;34.40;20.15;;;;;;;8.11;83.77;97994.06;5024534;28;20053;-61
2022/11/14 07:38:07;;;;;;;37.60;21.95;;;;;;;8.29;84.10;97978.28;5024551;28;20103;-63
2022/11/14 07:40:33;;;;;;;33.92;20.17;;;;;;;7.11;83.09;97811.00;5023770;28;20524;-58
2022/11/14 07:43:01;;;;;;;34.83;20.13;;;;;;;8.53;82.68;97956.38;5024315;28;20136;-57
2022/11/14 07:45:28;;;;;;;29.65;20.38;;;;;;;9.10;81.51;98029.28;5023089;28;20132;-62
2022/11/14 07:48:00;;;;;;;31.40;19.38;;;;;;;9.10;81.17;98009.91;5041495;28;20045;-63
2022/11/14 07:50:28;;;;;;;27.38;18.58;;;;;;;9.38;81.11;98022.03;5035372;28;20134;-62
2022/11/14 07:52:56;;;;;;;27.27;17.85;;;;;;;9.57;80.60;98030.66;5005171;28;20045;-59
2022/11/14 07:55:23;;;;;;;30.38;19.75;;;;;;;9.38;80.73;97985.28;5021933;28;20622;-62
2022/11/14 07:57:53;;;;;;;28.23;17.25;;;;;;;9.54;81.91;97987.06;5025746;28;20072;-66
2022/11/14 08:00:20;;;;;;;27.70;17.45;;;;;;;9.94;81.92;98035.16;5025503;28;20053;-66
2022/11/14 08:02:47;;;;;;;26.17;15.77;;;;;;;9.29;81.72;97910.72;5025863;28;20049;-67
2022/11/14 08:05:14;;;;;;;24.10;15.38;;;;;;;9.39;85.77;98029.19;5025699;28;20127;-58
2022/11/14 08:07:40;;;;;;;23.77;14.75;;;;;;;9.57;87.18;98025.13;5024353;28;20088;-58
2022/11/14 08:10:07;;;;;;;27.02;14.25;;;;;;;9.79;85.90;98010.91;5023315;28;20054;-59
2022/11/14 08:12:34;;;;;;;22.65;13.30;;;;;;;9.79;85.62;98027.50;5024917;28;20475;-59
2022/11/14 08:15:01;;;;;;;24.60;14.95;;;;;;;9.96;87.73;98027.31;5026090;28;20148;-61
2022/11/14 08:17:28;;;;;;;27.83;16.27;;;;;;;9.69;85.08;97917.25;5024841;28;20543;-56
2022/11/14 08:19:54;;;;;;;20.17;13.70;;;;;;;10.36;84.61;97992.34;5024378;28;20156;-63
2022/11/14 08:22:43;;;;;;;22.38;14.35;;;;;;;10.80;83.51;98023.00;5044704;27;20392;-57
2022/11/14 08:25:09;;;;;;;18.02;12.75;;;;;;;10.73;83.22;98023.63;5041736;28;20704;-64
2022/11/14 08:27:36;;;;;;;20.70;13.65;;;;;;;10.96;82.63;98021.97;5041392;28;20111;-66
2022/11/14 08:30:03;;;;;;;20.23;12.50;;;;;;;10.43;82.03;97905.91;5041876;28;20080;-55
2022/11/14 08:32:30;;;;;;;16.35;10.40;;;;;;;10.85;79.93;97984.81;5028005;28;20112;-64
2022/11/14 08:34:56;;;;;;;17.52;11.35;;;;;;;10.91;82.20;98013.09;5039751;28;20593;-57
2022/11/14 08:38:02;;;;;;;25.17;12.77;;;;;;;11.02;82.62;97978.19;5052344;27;20418;-57
2022/11/14 08:40:30;;;;;;;20.73;12.95;;;;;;;10.94;82.25;97912.59;5040679;28;20077;-56
2022/11/14 08:43:00;;;;;;;23.52;13.77;;;;;;;10.90;80.57;97900.59;5040525;28;20587;-57
2022/11/14 08:45:28;;;;;;;16.70;12.20;;;;;;;11.32;81.46;97990.56;5040190;28;20534;-57
2022/11/14 08:47:55;;;;;;;20.42;12.48;;;;;;;10.67;82.43;97886.44;5039572;28;20139;-68
2022/11/14 08:50:22;;;;;;;19.17;13.13;;;;;;;11.53;82.13;98014.19;5040580;28;20459;-65
2022/11/14 08:52:50;;;;;;;16.85;12.02;;;;;;;11.13;81.04;97871.19;5022295;28;20057;-58
2022/11/14 08:55:19;;;;;;;19.45;12.10;;;;;;;11.97;79.98;97984.50;5041836;28;20137;-57
2022/11/14 08:57:46;;;;;;;18.48;11.52;;;;;;;10.53;80.53;97770.50;5038467;28;20062;-69
2022/11/14 09:00:16;;;;;;;17.08;12.13;;;;;;;12.12;82.47;97986.50;5041858;28;20444;-64
2022/11/14 09:02:42;;;;;;;16.35;11.68;;;;;;;12.48;80.46;97983.44;5023371;28;20057;-62
2022/11/14 09:05:10;;;;;;;19.92;12.88;;;;;;;12.34;79.66;97955.31;5014043;28;20353;-56
2022/11/14 09:07:37;;;;;;;18.95;13.20;;;;;;;11.95;80.43;97853.53;5020864;28;20070;-62
2022/11/14 09:10:04;;;;;;;17.90;13.65;;;;;;;13.02;79.30;97969.66;5019849;28;20050;-57
2022/11/14 09:12:31;;;;;;;21.05;13.68;;;;;;;13.23;78.29;97967.34;5020875;28;20053;-57
2022/11/14 09:14:57;;;;;;;15.88;11.57;;;;;;;13.24;77.47;97950.28;5020142;28;20427;-59
2022/11/14 09:17:24;;;;;;;17.48;10.60;;;;;;;12.97;77.02;97954.03;5010909;28;20049;-68
2022/11/14 09:19:50;;;;;;;25.08;17.67;;;;;;;13.35;77.11;97956.88;5015243;28;20042;-65
2022/11/14 09:22:17;;;;;;;18.77;12.30;;;;;;;12.86;78.64;97939.09;5001541;28;20535;-68
2022/11/14 09:24:46;;;;;;;16.65;10.85;;;;;;;12.60;79.78;97947.19;5000186;28;20061;-57
2022/11/14 09:27:13;;;;;;;14.85;11.27;;;;;;;12.49;80.60;97954.47;5001129;28;20054;-58
2022/11/14 09:29:40;;;;;;;17.65;12.52;;;;;;;12.13;80.40;97865.91;5005914;28;20527;-67
2022/11/14 09:32:06;;;;;;;16.70;12.02;;;;;;;12.74;79.46;97930.06;5021126;28;20053;-68
2022/11/14 09:34:33;;;;;;;17.13;12.00;;;;;;;13.17;77.00;97939.00;5004351;28;20057;-63
2022/11/14 09:36:59;;;;;;;18.02;12.43;;;;;;;13.42;76.71;97934.75;5002702;28;20065;-59
2022/11/14 09:39:26;;;;;;;15.90;11.30;;;;;;;12.97;74.64;97823.31;5002254;28;20053;-60
2022/11/14 09:42:11;;;;;;;16.77;11.48;;;;;;;13.87;72.54;97927.63;5016999;28;20513;-64
2022/11/14 09:45:05;;;;;;;15.32;11.05;;;;;;;13.76;71.74;97923.84;5020631;28;20540;-63
2022/11/14 09:47:41;;;;;;;14.20;11.10;;;;;;;13.98;72.41;97925.84;4998240;28;20065;-58
2022/11/14 09:50:25;;;;;;;16.17;11.75;;;;;;;14.20;70.69;97919.47;4987303;28;20060;-59
2022/11/14 09:52:56;;;;;;;15.70;11.25;;;;;;;14.15;71.07;97922.56;4988164;28;20839;-55
2022/11/14 09:55:28;;;;;;;15.57;11.02;;;;;;;13.23;71.40;97770.59;4986700;28;20062;-62
2022/11/14 09:58:03;;;;;;;15.75;10.43;;;;;;;14.09;70.90;97880.28;4996532;28;20058;-59
2022/11/14 10:01:08;;;;;;;18.83;11.23;;;;;;;14.44;71.64;97913.53;5003885;28;20217;-63
2022/11/14 10:03:55;;;;;;;17.55;11.20;;;;;;;13.80;71.57;97906.03;5004432;28;20049;-63
2022/11/14 10:06:53;;;;;;;19.70;12.23;;;;;;;14.14;71.20;97909.81;4988416;28;20054;-61
2022/11/14 10:09:45;;;;;;;18.13;11.60;;;;;;;11.62;72.20;97539.50;4994101;28;20130;-62
2022/11/14 10:12:30;;;;;;;14.20;11.05;;;;;;;13.59;72.89;97903.66;5007076;28;20057;-61
2022/11/14 10:15:04;;;;;;;18.52;12.40;;;;;;;13.69;73.19;97893.91;5007601;28;20064;-60
2022/11/14 10:17:48;;;;;;;19.27;11.88;;;;;;;13.70;73.35;97893.53;5006805;28;20057;-64
2022/11/14 10:20:28;;;;;;;17.88;12.45;;;;;;;14.21;72.39;97887.66;5005426;28;20054;-60
2022/11/14 10:23:28;;;;;;;20.17;11.93;;;;;;;14.53;71.26;97877.81;4991559;28;20054;-60
2022/11/14 10:26:08;;;;;;;15.85;11.35;;;;;;;14.68;70.09;97880.47;4984863;28;20319;-60
2022/11/14 10:28:59;;;;;;;15.02;11.02;;;;;;;12.39;70.37;97527.16;4985198;28;20133;-65
2022/11/14 10:32:01;;;;;;;19.08;12.98;;;;;;;12.93;69.29;97544.34;4987963;28;20062;-67
2022/11/14 10:34:38;;;;;;;38.90;21.50;;;;;;;15.24;69.00;97869.22;4990823;28;20058;-57
2022/11/14 10:37:16;;;;;;;21.52;13.02;;;;;;;15.32;67.94;97864.56;4989624;28;20054;-63
2022/11/14 10:39:56;;;;;;;15.13;10.55;;;;;;;14.80;69.03;97854.31;4999149;28;20567;-57
2022/11/14 10:42:41;;;;;;;15.00;10.90;;;;;;;14.40;68.91;97790.03;4985452;28;20104;-59
2022/11/14 10:45:25;;;;;;;30.27;20.25;;;;;;;14.53;69.49;97850.75;4988596;28;20488;-67
2022/11/14 10:48:02;;;;;;;29.90;20.10;;;;;;;14.24;70.36;97853.47;4986738;28;20096;-71
2022/11/14 10:50:56;;;;;;;18.30;12.23;;;;;;;14.32;70.78;97849.66;4986460;28;20091;-58
2022/11/14 10:53:34;;;;;;;16.40;10.98;;;;;;;13.75;69.56;97746.81;4987019;28;20121;-67
2022/11/14 10:56:00;;;;;;;16.92;11.52;;;;;;;14.38;69.20;97831.41;4986666;28;20062;-60
2022/11/14 10:58:30;;;;;;;14.57;11.48;;;;;;;14.36;68.94;97778.03;5002979;28;20061;-69
2022/11/14 11:01:36;;;;;;;17.02;10.68;;;;;;;15.28;67.52;97830.19;5005612;28;20077;-60
2022/11/14 11:04:27;;;;;;;12.98;10.82;;;;;;;15.68;66.48;97817.06;5004860;28;20050;-58
2022/11/14 11:12:53;;;;;;;15.07;10.02;;;;;;;15.41;61.76;97645.31;4993061;28;20050;-61
2022/11/14 11:15:22;;;;;;;12.32;10.10;;;;;;;16.72;60.90;97809.09;4987022;28;20113;-58
2022/11/14 11:18:22;;;;;;;12.98;9.35;;;;;;;16.59;59.75;97773.06;4994585;28;20061;-64
2022/11/14 11:21:08;;;;;;;10.20;8.48;;;;;;;16.92;57.76;97805.59;4986511;28;20058;-59
2022/11/14 11:23:47;;;;;;;11.43;8.25;;;;;;;15.99;59.29;97797.00;5004029;28;20057;-59
2022/11/14 11:26:31;;;;;;;19.70;12.23;;;;;;;16.39;59.83;97777.31;5004780;28;20050;-63
2022/11/14 11:29:03;;;;;;;17.00;10.38;;;;;;;16.40;59.04;97800.50;4998027;28;20073;-68
2022/11/14 11:31:51;;;;;;;14.68;9.60;;;;;;;16.66;58.44;97782.69;4985799;28;20056;-59
2022/11/14 11:34:24;;;;;;;14.73;9.95;;;;;;;16.44;58.71;97796.56;4999872;28;20064;-58
2022/11/14 11:36:58;;;;;;;13.82;10.00;;;;;;;16.07;59.39;97784.69;5005257;28;20069;-59
2022/11/14 11:39:29;;;;;;;14.05;9.55;;;;;;;14.16;58.86;97462.47;5005723;28;20253;-56